createdAt,value
2023-02-24T00:00:11.672Z,947.92
2023-02-24T00:01:11.659Z,947.89
2023-02-24T00:02:11.667Z,947.85
2023-02-24T00:03:11.896Z,947.88
2023-02-24T00:04:11.615Z,947.87
2023-02-24T00:05:11.676Z,947.85
2023-02-24T00:06:11.579Z,947.84
2023-02-24T00:07:11.571Z,947.9
2023-02-24T00:08:11.550Z,947.87
2023-02-24T00:09:11.536Z,947.84
2023-02-24T00:10:11.529Z,947.86
2023-02-24T00:11:11.507Z,947.79
2023-02-24T00:12:11.521Z,947.79
2023-02-24T00:13:11.477Z,947.79
2023-02-24T00:14:11.460Z,947.86
2023-02-24T00:15:11.445Z,947.82
2023-02-24T00:16:11.473Z,947.84
2023-02-24T00:17:11.485Z,947.87
2023-02-24T00:18:11.400Z,947.83
2023-02-24T00:19:11.389Z,947.87
2023-02-24T00:20:11.375Z,947.81
2023-02-24T00:21:11.382Z,947.84
2023-02-24T00:22:11.342Z,947.83
2023-02-24T00:23:11.323Z,947.83
2023-02-24T00:24:11.309Z,947.85
2023-02-24T00:25:11.292Z,947.86
2023-02-24T00:26:11.279Z,947.81
2023-02-24T00:27:11.347Z,947.81
2023-02-24T00:28:11.251Z,947.85
2023-02-24T00:29:11.235Z,947.82
2023-02-24T00:30:11.237Z,947.8
2023-02-24T00:31:11.291Z,947.79
2023-02-24T00:32:11.465Z,947.76
2023-02-24T00:33:11.181Z,947.82
2023-02-24T00:34:11.169Z,947.78
2023-02-24T00:35:11.152Z,947.78
2023-02-24T00:36:11.141Z,947.75
2023-02-24T00:37:11.147Z,947.76
2023-02-24T00:38:11.112Z,947.76
2023-02-24T00:39:11.105Z,947.72
2023-02-24T00:40:11.081Z,947.72
2023-02-24T00:41:11.066Z,947.74
2023-02-24T00:42:11.051Z,947.73
2023-02-24T00:43:11.038Z,947.7
2023-02-24T00:44:11.029Z,947.72
2023-02-24T00:45:11.005Z,947.68
2023-02-24T00:46:11.106Z,947.69
2023-02-24T00:47:10.978Z,947.65
2023-02-24T00:48:10.961Z,947.69
2023-02-24T00:49:10.950Z,947.61
2023-02-24T00:50:10.935Z,947.63
2023-02-24T00:51:10.918Z,947.62
2023-02-24T00:52:10.910Z,947.64
2023-02-24T00:53:10.912Z,947.59
2023-02-24T00:54:10.875Z,947.57
2023-02-24T00:55:10.856Z,947.59
2023-02-24T00:56:10.842Z,947.53
2023-02-24T00:57:10.850Z,947.5
2023-02-24T00:58:10.813Z,947.53
2023-02-24T00:59:10.798Z,947.47
2023-02-24T01:00:10.783Z,947.43
2023-02-24T01:01:10.812Z,947.39
2023-02-24T01:02:10.776Z,947.41
2023-02-24T01:03:10.744Z,947.42
2023-02-24T01:04:10.782Z,947.43
2023-02-24T01:05:10.706Z,947.42
2023-02-24T01:06:10.690Z,947.39
2023-02-24T01:07:11.209Z,947.43
2023-02-24T01:08:10.661Z,947.45
2023-02-24T01:09:10.671Z,947.44
2023-02-24T01:10:10.627Z,947.4
2023-02-24T01:11:10.614Z,947.42
2023-02-24T01:12:10.665Z,947.37
2023-02-24T01:13:10.585Z,947.37
2023-02-24T01:14:10.568Z,947.39
2023-02-24T01:15:10.556Z,947.42
2023-02-24T01:16:10.573Z,947.4
2023-02-24T01:17:10.522Z,947.39
2023-02-24T01:18:10.506Z,947.39
2023-02-24T01:19:10.492Z,947.38
2023-02-24T01:20:10.476Z,947.35
2023-02-24T01:21:10.465Z,947.36
2023-02-24T01:22:10.444Z,947.32
2023-02-24T01:23:10.431Z,947.32
2023-02-24T01:24:10.421Z,947.34
2023-02-24T01:25:10.425Z,947.3
2023-02-24T01:26:10.392Z,947.28
2023-02-24T01:27:10.372Z,947.3
2023-02-24T01:28:10.353Z,947.25
2023-02-24T01:29:10.339Z,947.28
2023-02-24T01:30:10.329Z,947.24
2023-02-24T01:31:10.426Z,947.22
2023-02-24T01:32:10.460Z,947.19
2023-02-24T01:33:10.355Z,947.13
2023-02-24T01:34:10.262Z,947.16
2023-02-24T01:35:10.248Z,947.18
2023-02-24T01:36:10.230Z,947.11
2023-02-24T01:37:10.226Z,947.15
2023-02-24T01:38:10.208Z,947.13
2023-02-24T01:39:10.196Z,947.1
2023-02-24T01:40:10.172Z,947.09
2023-02-24T01:41:10.186Z,947.1
2023-02-24T01:42:10.143Z,947.02
2023-02-24T01:43:10.128Z,947.02
2023-02-24T01:44:10.110Z,947.02
2023-02-24T01:45:10.099Z,947.04
2023-02-24T01:46:10.141Z,946.99
2023-02-24T01:47:10.068Z,946.95
2023-02-24T01:48:10.056Z,946.94
2023-02-24T01:49:10.045Z,946.92
2023-02-24T01:50:10.025Z,946.9
2023-02-24T01:51:10.007Z,946.9
2023-02-24T01:52:09.999Z,946.87
2023-02-24T01:53:09.987Z,946.84
2023-02-24T01:54:09.971Z,946.79
2023-02-24T01:55:09.950Z,946.83
2023-02-24T01:56:09.936Z,946.78
2023-02-24T01:57:09.953Z,946.74
2023-02-24T01:58:09.900Z,946.77
2023-02-24T01:59:09.886Z,946.75
2023-02-24T02:00:09.873Z,946.73
2023-02-24T02:01:09.860Z,946.69
2023-02-24T02:02:10.024Z,946.66
2023-02-24T02:03:09.826Z,946.69
2023-02-24T02:04:09.812Z,946.64
2023-02-24T02:05:09.798Z,946.63
2023-02-24T02:06:09.785Z,946.61
2023-02-24T02:07:09.777Z,946.59
2023-02-24T02:08:09.756Z,946.59
2023-02-24T02:09:09.735Z,946.59
2023-02-24T02:10:09.721Z,946.56
2023-02-24T02:11:09.703Z,946.52
2023-02-24T02:12:09.688Z,946.51
2023-02-24T02:13:09.699Z,946.52
2023-02-24T02:14:09.658Z,946.54
2023-02-24T02:15:09.644Z,946.54
2023-02-24T02:16:09.682Z,946.55
2023-02-24T02:17:09.610Z,946.52
2023-02-24T02:18:09.597Z,946.52
2023-02-24T02:19:09.581Z,946.51
2023-02-24T02:20:09.567Z,946.52
2023-02-24T02:21:09.550Z,946.51
2023-02-24T02:22:09.537Z,946.53
2023-02-24T02:23:09.519Z,946.55
2023-02-24T02:24:09.505Z,946.54
2023-02-24T02:25:09.489Z,946.52
2023-02-24T02:26:09.475Z,946.47
2023-02-24T02:27:10.190Z,946.49
2023-02-24T02:28:10.175Z,946.46
2023-02-24T02:29:10.182Z,946.45
2023-02-24T02:30:10.144Z,946.48
2023-02-24T02:31:10.295Z,946.46
2023-02-24T02:32:10.262Z,946.46
2023-02-24T02:33:10.098Z,946.5
2023-02-24T02:34:10.086Z,946.47
2023-02-24T02:35:10.071Z,946.46
2023-02-24T02:36:10.061Z,946.47
2023-02-24T02:37:10.037Z,946.5
2023-02-24T02:38:10.025Z,946.46
2023-02-24T02:39:10.008Z,946.42
2023-02-24T02:40:09.997Z,946.45
2023-02-24T02:41:09.976Z,946.44
2023-02-24T02:42:09.962Z,946.41
2023-02-24T02:43:09.946Z,946.44
2023-02-24T02:44:09.931Z,946.44
2023-02-24T02:45:09.937Z,946.39
2023-02-24T02:46:09.928Z,946.4
2023-02-24T02:47:09.883Z,946.38
2023-02-24T02:48:09.868Z,946.39
2023-02-24T02:49:09.857Z,946.41
2023-02-24T02:50:09.845Z,946.4
2023-02-24T02:51:09.821Z,946.35
2023-02-24T02:52:09.803Z,946.4
2023-02-24T02:53:09.790Z,946.41
2023-02-24T02:54:09.773Z,946.43
2023-02-24T02:55:09.763Z,946.4
2023-02-24T02:56:09.738Z,946.42
2023-02-24T02:57:09.729Z,946.39
2023-02-24T02:58:09.709Z,946.36
2023-02-24T02:59:09.697Z,946.37
2023-02-24T03:00:09.679Z,946.31
2023-02-24T03:01:09.857Z,946.32
2023-02-24T03:02:09.649Z,946.36
2023-02-24T03:03:09.631Z,946.32
2023-02-24T03:04:09.619Z,946.32
2023-02-24T03:05:09.603Z,946.3
2023-02-24T03:06:09.583Z,946.26
2023-02-24T03:07:09.570Z,946.3
2023-02-24T03:08:09.553Z,946.3
2023-02-24T03:09:09.541Z,946.24
2023-02-24T03:10:09.524Z,946.29
2023-02-24T03:11:09.513Z,946.2
2023-02-24T03:12:09.492Z,946.22
2023-02-24T03:13:09.478Z,946.22
2023-02-24T03:14:09.460Z,946.17
2023-02-24T03:15:09.445Z,946.18
2023-02-24T03:16:09.463Z,946.17
2023-02-24T03:17:09.441Z,946.16
2023-02-24T03:18:09.405Z,946.14
2023-02-24T03:19:09.384Z,946.16
2023-02-24T03:20:09.367Z,946.2
2023-02-24T03:21:09.361Z,946.16
2023-02-24T03:22:09.336Z,946.15
2023-02-24T03:23:09.337Z,946.18
2023-02-24T03:24:09.304Z,946.1
2023-02-24T03:25:09.289Z,946.1
2023-02-24T03:26:09.274Z,946.08
2023-02-24T03:27:09.262Z,946.1
2023-02-24T03:28:09.241Z,946.15
2023-02-24T03:29:09.229Z,946.12
2023-02-24T03:30:09.210Z,946.08
2023-02-24T03:31:09.234Z,946.05
2023-02-24T03:32:09.313Z,946.02
2023-02-24T03:49:29.857Z,945.93
2023-02-24T03:50:29.817Z,945.94
2023-02-24T03:51:29.797Z,945.99
2023-02-24T03:52:29.787Z,946
2023-02-24T03:53:29.762Z,946.01
2023-02-24T03:54:29.756Z,945.99
2023-02-24T03:55:29.726Z,945.96
2023-02-24T03:56:29.706Z,945.96
2023-02-24T03:57:29.688Z,945.97
2023-02-24T03:58:29.670Z,945.98
2023-02-24T03:59:29.651Z,945.95
2023-02-24T04:00:29.638Z,945.95
2023-02-24T04:01:29.616Z,945.9
2023-02-24T04:02:29.640Z,945.89
2023-02-24T04:03:29.583Z,945.88
2023-02-24T04:04:29.594Z,945.87
2023-02-24T04:05:29.575Z,945.9
2023-02-24T04:06:29.536Z,945.9
2023-02-24T04:07:29.519Z,945.9
2023-02-24T04:08:29.503Z,945.93
2023-02-24T04:09:29.484Z,945.97
2023-02-24T04:10:29.480Z,945.89
2023-02-24T04:11:29.452Z,945.91
2023-02-24T04:12:29.487Z,945.88
2023-02-24T04:13:29.416Z,945.86
2023-02-24T04:14:29.404Z,945.85
2023-02-24T04:15:29.462Z,945.87
2023-02-24T04:16:29.366Z,945.82
2023-02-24T04:17:29.350Z,945.83
2023-02-24T04:18:29.333Z,945.79
2023-02-24T04:19:29.314Z,945.81
2023-02-24T04:20:29.305Z,945.83
2023-02-24T04:21:29.307Z,945.81
2023-02-24T04:22:29.271Z,945.85
2023-02-24T04:23:29.252Z,945.8
2023-02-24T04:24:29.235Z,945.8
2023-02-24T04:25:29.215Z,945.8
2023-02-24T04:26:29.199Z,945.77
2023-02-24T04:27:29.192Z,945.82
2023-02-24T04:28:29.167Z,945.81
2023-02-24T04:29:29.149Z,945.75
2023-02-24T04:30:29.136Z,945.75
2023-02-24T04:31:29.910Z,945.78
2023-02-24T04:32:29.938Z,945.7
2023-02-24T04:33:29.785Z,945.73
2023-02-24T04:34:29.773Z,945.74
2023-02-24T04:35:29.752Z,945.71
2023-02-24T04:36:29.740Z,945.74
2023-02-24T04:37:29.746Z,945.67
2023-02-24T04:38:29.709Z,945.67
2023-02-24T04:39:29.687Z,945.67
2023-02-24T04:40:29.689Z,945.64
2023-02-24T04:41:29.673Z,945.69
2023-02-24T04:42:29.644Z,945.71
2023-02-24T04:43:29.623Z,945.68
2023-02-24T04:44:29.704Z,945.7
2023-02-24T04:45:29.587Z,945.69
2023-02-24T04:46:29.587Z,945.7
2023-02-24T04:47:29.555Z,945.67
2023-02-24T04:48:29.538Z,945.62
2023-02-24T04:49:29.520Z,945.63
2023-02-24T04:50:29.504Z,945.65
2023-02-24T04:51:29.490Z,945.59
2023-02-24T04:52:29.471Z,945.57
2023-02-24T04:53:29.495Z,945.56
2023-02-24T04:54:29.437Z,945.57
2023-02-24T04:55:29.515Z,945.55
2023-02-24T04:56:29.410Z,945.51
2023-02-24T04:57:29.394Z,945.51
2023-02-24T04:58:29.385Z,945.47
2023-02-24T04:59:29.356Z,945.39
2023-02-24T05:00:29.339Z,945.39
2023-02-24T05:01:29.325Z,945.42
2023-02-24T05:02:29.306Z,945.42
2023-02-24T05:03:29.339Z,945.41
2023-02-24T05:04:29.320Z,945.34
2023-02-24T05:05:29.257Z,945.34
2023-02-24T05:06:29.240Z,945.37
2023-02-24T05:07:29.225Z,945.31
2023-02-24T05:08:29.209Z,945.3
2023-02-24T05:09:29.322Z,945.31
2023-02-24T05:10:29.175Z,945.3
2023-02-24T05:11:29.161Z,945.28
2023-02-24T05:12:29.145Z,945.24
2023-02-24T05:13:29.128Z,945.24
2023-02-24T05:14:29.110Z,945.22
2023-02-24T05:15:29.093Z,945.2
2023-02-24T05:16:29.136Z,945.18
2023-02-24T05:17:29.078Z,945.17
2023-02-24T05:18:29.040Z,945.17
2023-02-24T05:19:29.030Z,945.12
2023-02-24T05:20:29.009Z,945.13
2023-02-24T05:21:29.022Z,945.13
2023-02-24T05:22:28.985Z,945.14
2023-02-24T05:23:28.984Z,945.1
2023-02-24T05:24:28.951Z,945.14
2023-02-24T05:25:28.953Z,945.1
2023-02-24T05:26:28.913Z,945.11
2023-02-24T05:27:28.892Z,945.1
2023-02-24T05:28:28.875Z,945.08
2023-02-24T05:29:28.859Z,945.05
2023-02-24T05:30:28.868Z,945.09
2023-02-24T05:31:29.073Z,945.07
2023-02-24T05:32:28.949Z,945.05
2023-02-24T05:33:28.791Z,945.07
2023-02-24T05:34:28.776Z,945.02
2023-02-24T05:35:28.763Z,945.04
2023-02-24T05:36:28.743Z,945.02
2023-02-24T05:37:28.725Z,944.99
2023-02-24T05:38:28.707Z,944.94
2023-02-24T05:39:28.692Z,944.9
2023-02-24T05:40:28.671Z,944.89
2023-02-24T05:41:28.679Z,944.92
2023-02-24T05:42:28.641Z,944.92
2023-02-24T05:43:28.630Z,944.88
2023-02-24T05:44:28.609Z,944.9
2023-02-24T05:45:28.589Z,944.96
2023-02-24T05:46:28.622Z,944.96
2023-02-24T05:47:28.552Z,944.96
2023-02-24T05:48:28.536Z,944.97
2023-02-24T05:49:28.519Z,945.01
2023-02-24T05:50:28.503Z,945
2023-02-24T05:51:28.491Z,944.98
2023-02-24T05:52:28.469Z,945
2023-02-24T05:53:28.489Z,945
2023-02-24T05:54:28.436Z,944.98
2023-02-24T05:55:28.421Z,944.98
2023-02-24T05:56:28.401Z,945.02
2023-02-24T05:57:28.409Z,945
2023-02-24T05:58:28.369Z,944.97
2023-02-24T05:59:28.354Z,944.96
2023-02-24T06:00:28.335Z,944.97
2023-02-24T06:01:28.318Z,944.96
2023-02-24T06:02:28.411Z,944.95
2023-02-24T06:03:28.307Z,944.99
2023-02-24T06:04:28.268Z,944.95
2023-02-24T06:05:28.251Z,944.96
2023-02-24T06:06:28.236Z,944.94
2023-02-24T06:07:28.220Z,944.96
2023-02-24T06:08:28.204Z,944.98
2023-02-24T06:09:28.182Z,944.91
2023-02-24T06:10:28.168Z,944.91
2023-02-24T06:11:28.246Z,944.93
2023-02-24T06:12:28.136Z,944.88
2023-02-24T06:13:28.141Z,944.86
2023-02-24T06:14:28.100Z,944.88
2023-02-24T06:15:28.083Z,944.83
2023-02-24T06:16:28.117Z,944.83
2023-02-24T06:17:28.048Z,944.82
2023-02-24T06:18:28.036Z,944.83
2023-02-24T06:19:28.020Z,944.82
2023-02-24T06:20:28.002Z,944.8
2023-02-24T06:21:27.983Z,944.79
2023-02-24T06:22:27.967Z,944.83
2023-02-24T06:23:27.951Z,944.78
2023-02-24T06:24:27.934Z,944.77
2023-02-24T06:25:27.918Z,944.78
2023-02-24T06:26:27.900Z,944.75
2023-02-24T06:27:27.887Z,944.76
2023-02-24T06:28:27.867Z,944.77
2023-02-24T06:29:27.879Z,944.75
2023-02-24T06:30:27.858Z,944.76
2023-02-24T06:31:27.877Z,944.75
2023-02-24T06:32:28.059Z,944.75
2023-02-24T06:33:27.788Z,944.75
2023-02-24T06:34:27.782Z,944.68
2023-02-24T06:35:27.768Z,944.65
2023-02-24T06:36:27.739Z,944.64
2023-02-24T06:37:27.723Z,944.65
2023-02-24T06:38:27.706Z,944.65
2023-02-24T06:39:27.690Z,944.6
2023-02-24T06:40:27.675Z,944.62
2023-02-24T06:41:27.658Z,944.62
2023-02-24T06:42:27.640Z,944.63
2023-02-24T06:43:27.626Z,944.59
2023-02-24T06:44:27.613Z,944.59
2023-02-24T06:45:27.623Z,944.64
2023-02-24T06:46:27.603Z,944.6
2023-02-24T06:47:27.560Z,944.63
2023-02-24T06:48:27.542Z,944.69
2023-02-24T06:49:27.531Z,944.71
2023-02-24T06:50:27.510Z,944.74
2023-02-24T06:51:27.495Z,944.73
2023-02-24T06:52:27.485Z,944.75
2023-02-24T06:53:27.461Z,944.73
2023-02-24T06:54:27.449Z,944.73
2023-02-24T06:55:27.436Z,944.73
2023-02-24T06:56:27.445Z,944.75
2023-02-24T06:57:27.400Z,944.78
2023-02-24T06:58:27.377Z,944.72
2023-02-24T06:59:27.364Z,944.73
2023-02-24T07:00:27.347Z,944.74
2023-02-24T07:01:27.387Z,944.74
2023-02-24T07:02:27.310Z,944.68
2023-02-24T07:03:27.294Z,944.64
2023-02-24T07:04:28.859Z,944.61
2023-02-24T07:05:27.264Z,944.6
2023-02-24T07:06:27.250Z,944.63
2023-02-24T07:07:27.230Z,944.57
2023-02-24T07:08:27.222Z,944.65
2023-02-24T07:09:27.198Z,944.57
2023-02-24T07:10:27.184Z,944.62
2023-02-24T07:11:27.166Z,944.62
2023-02-24T07:12:27.147Z,944.64
2023-02-24T07:13:27.134Z,944.65
2023-02-24T07:14:27.120Z,944.64
2023-02-24T07:15:27.097Z,944.61
2023-02-24T07:16:27.104Z,944.62
2023-02-24T07:17:27.088Z,944.57
2023-02-24T07:18:27.050Z,944.56
2023-02-24T07:19:27.030Z,944.56
2023-02-24T07:20:27.016Z,944.54
2023-02-24T07:21:27.007Z,944.53
2023-02-24T07:22:26.985Z,944.53
2023-02-24T07:23:26.966Z,944.51
2023-02-24T07:24:26.955Z,944.47
2023-02-24T07:25:26.940Z,944.42
2023-02-24T07:26:26.930Z,944.44
2023-02-24T07:27:26.900Z,944.42
2023-02-24T07:28:26.885Z,944.42
2023-02-24T07:29:26.869Z,944.41
2023-02-24T07:30:26.928Z,944.4
2023-02-24T07:31:27.075Z,944.43
2023-02-24T07:32:26.852Z,944.41
2023-02-24T07:33:26.827Z,944.39
2023-02-24T07:34:26.790Z,944.38
2023-02-24T07:35:26.772Z,944.35
2023-02-24T07:36:26.757Z,944.33
2023-02-24T07:37:26.738Z,944.33
2023-02-24T07:38:26.729Z,944.31
2023-02-24T07:39:26.704Z,944.35
2023-02-24T07:40:26.691Z,944.32
2023-02-24T07:41:26.670Z,944.28
2023-02-24T07:42:26.669Z,944.32
2023-02-24T07:43:26.643Z,944.31
2023-02-24T07:44:26.626Z,944.27
2023-02-24T07:45:26.653Z,944.23
2023-02-24T07:46:26.612Z,944.23
2023-02-24T07:47:26.609Z,944.26
2023-02-24T07:48:26.560Z,944.23
2023-02-24T07:49:26.576Z,944.17
2023-02-24T07:50:26.526Z,944.16
2023-02-24T07:51:26.511Z,944.1
2023-02-24T07:52:26.494Z,944.09
2023-02-24T07:53:26.476Z,944.14
2023-02-24T07:54:26.463Z,944.1
2023-02-24T07:55:26.445Z,944.12
2023-02-24T07:56:26.431Z,944.19
2023-02-24T07:57:26.440Z,944.19
2023-02-24T07:58:26.398Z,944.22
2023-02-24T07:59:26.386Z,944.25
2023-02-24T08:00:26.365Z,944.19
2023-02-24T08:01:26.350Z,944.2
2023-02-24T08:02:26.374Z,944.13
2023-02-24T08:03:26.317Z,944.14
2023-02-24T08:04:26.301Z,944.09
2023-02-24T08:05:26.379Z,944.06
2023-02-24T08:06:26.265Z,944.07
2023-02-24T08:07:26.260Z,944.05
2023-02-24T08:08:26.239Z,944.08
2023-02-24T08:09:26.221Z,944.07
2023-02-24T08:10:27.128Z,944.06
2023-02-24T08:11:27.111Z,944.05
2023-02-24T08:12:27.411Z,944.03
2023-02-24T08:13:27.081Z,944.01
2023-02-24T08:14:27.071Z,944.02
2023-02-24T08:15:27.048Z,943.99
2023-02-24T08:16:27.031Z,943.99
2023-02-24T08:17:27.075Z,943.99
2023-02-24T08:18:26.997Z,944
2023-02-24T08:19:26.982Z,944
2023-02-24T08:20:27.001Z,944.02
2023-02-24T08:21:27.000Z,943.95
2023-02-24T08:22:26.930Z,943.93
2023-02-24T08:23:26.925Z,943.86
2023-02-24T08:24:26.900Z,943.88
2023-02-24T08:25:26.887Z,943.86
2023-02-24T08:26:26.910Z,943.85
2023-02-24T08:27:26.852Z,943.88
2023-02-24T08:28:26.912Z,943.92
2023-02-24T08:29:26.822Z,943.94
2023-02-24T08:30:26.834Z,943.95
2023-02-24T08:31:27.090Z,943.87
2023-02-24T08:32:26.874Z,943.86
2023-02-24T08:33:26.757Z,943.81
2023-02-24T08:34:26.738Z,943.86
2023-02-24T08:35:26.726Z,943.83
2023-02-24T08:36:26.708Z,943.78
2023-02-24T08:37:26.716Z,943.75
2023-02-24T08:38:26.686Z,943.77
2023-02-24T08:39:26.673Z,943.75
2023-02-24T08:40:26.653Z,943.78
2023-02-24T08:41:26.629Z,943.72
2023-02-24T08:42:26.609Z,943.78
2023-02-24T08:43:26.594Z,943.76
2023-02-24T08:44:26.591Z,943.69
2023-02-24T08:45:26.563Z,943.67
2023-02-24T08:46:27.146Z,943.64
2023-02-24T08:47:26.564Z,943.67
2023-02-24T08:48:26.520Z,943.64
2023-02-24T08:49:26.502Z,943.66
2023-02-24T08:50:26.526Z,943.68
2023-02-24T08:51:26.474Z,943.65
2023-02-24T08:52:26.450Z,943.61
2023-02-24T08:53:26.476Z,943.62
2023-02-24T08:54:26.418Z,943.66
2023-02-24T08:55:26.403Z,943.69
2023-02-24T08:56:26.389Z,943.7
2023-02-24T08:57:26.381Z,943.6
2023-02-24T08:58:26.356Z,943.58
2023-02-24T08:59:26.343Z,943.61
2023-02-24T09:00:26.425Z,943.59
2023-02-24T09:01:26.382Z,943.58
2023-02-24T09:02:26.293Z,943.56
2023-02-24T09:03:26.278Z,943.57
2023-02-24T09:04:26.299Z,943.6
2023-02-24T09:05:26.243Z,943.56
2023-02-24T09:06:26.229Z,943.55
2023-02-24T09:07:26.218Z,943.51
2023-02-24T09:08:26.197Z,943.42
2023-02-24T09:09:26.206Z,943.4
2023-02-24T09:10:26.229Z,943.38
2023-02-24T09:11:26.147Z,943.32
2023-02-24T09:12:26.200Z,943.29
2023-02-24T09:13:26.116Z,943.28
2023-02-24T09:14:28.164Z,943.27
2023-02-24T09:15:26.090Z,943.35
2023-02-24T09:16:26.136Z,943.32
2023-02-24T09:17:26.054Z,943.32
2023-02-24T09:18:26.039Z,943.31
2023-02-24T09:19:26.022Z,943.33
2023-02-24T09:20:26.056Z,943.29
2023-02-24T09:21:25.990Z,943.28
2023-02-24T09:22:25.977Z,943.27
2023-02-24T09:23:25.958Z,943.25
2023-02-24T09:24:25.944Z,943.24
2023-02-24T09:25:26.006Z,943.22
2023-02-24T09:26:25.915Z,943.23
2023-02-24T09:27:25.899Z,943.18
2023-02-24T09:28:25.981Z,943.23
2023-02-24T09:29:25.867Z,943.16
2023-02-24T09:30:25.916Z,943.17
2023-02-24T09:31:26.521Z,943.1
2023-02-24T09:32:25.949Z,943.07
2023-02-24T09:33:25.821Z,943.06
2023-02-24T09:34:25.798Z,943.03
2023-02-24T09:35:25.778Z,943.06
2023-02-24T09:36:25.768Z,943.03
2023-02-24T09:37:25.742Z,942.99
2023-02-24T09:38:25.741Z,942.99
2023-02-24T09:39:25.711Z,942.96
2023-02-24T09:40:25.702Z,942.94
2023-02-24T09:41:25.704Z,942.9
2023-02-24T09:42:25.669Z,942.89
2023-02-24T09:43:25.651Z,942.88
2023-02-24T09:44:25.646Z,942.87
2023-02-24T09:45:25.653Z,942.83
2023-02-24T09:46:25.712Z,942.83
2023-02-24T09:47:25.594Z,942.81
2023-02-24T09:48:25.577Z,942.8
2023-02-24T09:49:25.567Z,942.79
2023-02-24T09:50:51.459Z,942.8
2023-02-24T09:51:25.538Z,942.76
2023-02-24T09:52:25.521Z,942.8
2023-02-24T09:53:25.505Z,942.74
2023-02-24T09:54:25.504Z,942.69
2023-02-24T09:55:25.517Z,942.67
2023-02-24T09:56:25.461Z,942.68
2023-02-24T09:57:25.601Z,942.61
2023-02-24T09:58:31.991Z,942.61
2023-02-24T09:59:25.420Z,942.55
2023-02-24T10:00:25.437Z,942.59
2023-02-24T10:01:25.677Z,942.55
2023-02-24T10:02:25.436Z,942.51
2023-02-24T10:03:25.361Z,942.53
2023-02-24T10:04:25.346Z,942.47
2023-02-24T10:05:25.331Z,942.44
2023-02-24T10:06:25.317Z,942.43
2023-02-24T10:07:25.318Z,942.44
2023-02-24T10:08:25.290Z,942.42
2023-02-24T10:09:25.277Z,942.41
2023-02-24T10:10:25.268Z,942.36
2023-02-24T10:11:25.247Z,942.42
2023-02-24T10:12:25.231Z,942.31
2023-02-24T10:13:25.250Z,942.33
2023-02-24T10:14:27.392Z,942.31
2023-02-24T10:15:25.188Z,942.33
2023-02-24T10:16:25.277Z,942.27
2023-02-24T10:17:25.193Z,942.32
2023-02-24T10:18:25.144Z,942.28
2023-02-24T10:19:25.133Z,942.27
2023-02-24T10:20:25.119Z,942.27
2023-02-24T10:21:25.106Z,942.25
2023-02-24T10:22:25.094Z,942.24
2023-02-24T10:23:25.079Z,942.24
2023-02-24T10:24:25.060Z,942.19
2023-02-24T10:25:25.047Z,942.19
2023-02-24T10:26:25.031Z,942.17
2023-02-24T10:27:25.019Z,942.16
2023-02-24T10:28:25.004Z,942.17
2023-02-24T10:29:25.022Z,942.17
2023-02-24T10:30:25.080Z,942.18
2023-02-24T10:31:25.918Z,942.18
2023-02-24T10:32:25.104Z,942.15
2023-02-24T10:33:24.949Z,942.15
2023-02-24T10:34:24.915Z,942.13
2023-02-24T10:35:24.907Z,942.16
2023-02-24T10:36:24.899Z,942.15
2023-02-24T10:37:29.359Z,942.1
2023-02-24T10:38:24.858Z,942.09
2023-02-24T10:39:24.846Z,942.1
2023-02-24T10:40:24.890Z,942.07
2023-02-24T10:41:24.817Z,942.02
2023-02-24T10:42:24.803Z,942.06
2023-02-24T10:43:24.809Z,942.06
2023-02-24T10:44:24.832Z,942.03
2023-02-24T10:45:24.791Z,942.03
2023-02-24T10:46:35.067Z,942.07
2023-02-24T10:47:24.729Z,942.03
2023-02-24T10:48:39.292Z,942.03
2023-02-24T10:49:24.700Z,942.03
2023-02-24T10:50:24.685Z,942.02
2023-02-24T10:51:24.938Z,941.98
2023-02-24T10:52:24.655Z,941.99
2023-02-24T10:53:24.646Z,942.04
2023-02-24T10:54:24.624Z,941.92
2023-02-24T10:55:24.614Z,941.87
2023-02-24T10:56:24.599Z,941.92
2023-02-24T10:57:24.579Z,941.92
2023-02-24T10:58:24.564Z,941.9
2023-02-24T10:59:24.808Z,941.9
2023-02-24T11:00:24.533Z,941.87
2023-02-24T11:01:24.828Z,941.9
2023-02-24T11:02:24.852Z,941.85
2023-02-24T11:03:32.377Z,941.82
2023-02-24T11:04:24.470Z,941.75
2023-02-24T11:05:24.451Z,941.76
2023-02-24T11:06:24.436Z,941.72
2023-02-24T11:07:24.420Z,941.73
2023-02-24T11:08:24.406Z,941.64
2023-02-24T11:09:24.391Z,941.63
2023-02-24T11:10:24.376Z,941.64
2023-02-24T11:11:24.353Z,941.65
2023-02-24T11:12:24.355Z,941.59
2023-02-24T11:13:24.324Z,941.55
2023-02-24T11:14:24.310Z,941.51
2023-02-24T11:15:24.292Z,941.45
2023-02-24T11:16:24.363Z,941.4
2023-02-24T11:17:24.285Z,941.4
2023-02-24T11:18:24.249Z,941.33
2023-02-24T11:19:24.227Z,941.33
2023-02-24T11:20:24.217Z,941.33
2023-02-24T11:21:24.289Z,941.29
2023-02-24T11:22:24.181Z,941.27
2023-02-24T11:23:24.164Z,941.24
2023-02-24T11:24:24.149Z,941.23
2023-02-24T11:25:24.133Z,941.27
2023-02-24T11:26:24.119Z,941.17
2023-02-24T11:27:24.102Z,941.15
2023-02-24T11:28:24.092Z,941.13
2023-02-24T11:29:24.070Z,941.09
2023-02-24T11:30:24.099Z,941.08
2023-02-24T11:31:24.591Z,941.05
2023-02-24T11:32:24.132Z,940.93
2023-02-24T11:33:24.036Z,940.95
2023-02-24T11:34:23.996Z,940.97
2023-02-24T11:35:23.982Z,940.91
2023-02-24T11:36:23.964Z,940.93
2023-02-24T11:37:23.951Z,940.94
2023-02-24T11:38:23.935Z,940.88
2023-02-24T11:39:23.922Z,940.84
2023-02-24T11:40:23.967Z,940.82
2023-02-24T11:41:24.252Z,940.8
2023-02-24T11:42:23.874Z,940.77
2023-02-24T11:43:23.896Z,940.72
2023-02-24T11:44:23.844Z,940.72
2023-02-24T11:45:23.836Z,940.74
2023-02-24T11:46:23.872Z,940.73
2023-02-24T11:47:23.805Z,940.65
2023-02-24T11:48:23.786Z,940.62
2023-02-24T11:49:23.818Z,940.62
2023-02-24T11:50:23.759Z,940.5
2023-02-24T11:51:23.982Z,940.5
2023-02-24T11:52:23.741Z,940.45
2023-02-24T11:53:23.719Z,940.42
2023-02-24T11:54:23.710Z,940.41
2023-02-24T11:55:23.689Z,940.4
2023-02-24T11:56:23.790Z,940.4
2023-02-24T11:57:23.659Z,940.4
2023-02-24T11:58:23.645Z,940.41
2023-02-24T11:59:24.267Z,940.3
2023-02-24T12:00:24.537Z,940.32
2023-02-24T12:01:24.451Z,940.31
2023-02-24T12:02:24.023Z,940.28
2023-02-24T12:03:23.989Z,940.27
2023-02-24T12:04:24.374Z,940.31
2023-02-24T12:05:24.616Z,940.21
2023-02-24T12:06:23.946Z,940.19
2023-02-24T12:07:23.932Z,940.22
2023-02-24T12:08:23.917Z,940.2
2023-02-24T12:09:24.353Z,940.19
2023-02-24T12:10:24.324Z,940.15
2023-02-24T12:11:24.436Z,940.12
2023-02-24T12:12:24.408Z,940.08
2023-02-24T12:13:24.416Z,940.11
2023-02-24T12:14:23.839Z,940.09
2023-02-24T12:15:24.370Z,940.09
2023-02-24T12:16:23.964Z,940.07
2023-02-24T12:17:23.791Z,940.11
2023-02-24T12:18:24.140Z,940.06
2023-02-24T12:19:23.923Z,940.09
2023-02-24T12:20:23.945Z,940.02
2023-02-24T12:21:24.305Z,940.02
2023-02-24T12:22:23.718Z,939.98
2023-02-24T12:23:23.704Z,939.97
2023-02-24T12:24:23.700Z,940.01
2023-02-24T12:25:23.675Z,939.98
2023-02-24T12:26:23.663Z,939.96
2023-02-24T12:27:23.647Z,939.93
2023-02-24T12:28:23.632Z,939.9
2023-02-24T12:29:23.620Z,939.87
2023-02-24T12:30:23.673Z,939.86
2023-02-24T12:31:24.136Z,939.83
2023-02-24T12:32:23.750Z,939.87
2023-02-24T12:33:23.560Z,939.91
2023-02-24T12:34:23.549Z,939.94
2023-02-24T12:35:23.532Z,939.89
2023-02-24T12:36:23.517Z,939.92
2023-02-24T12:37:23.526Z,939.89
2023-02-24T12:38:23.503Z,939.89
2023-02-24T12:39:23.476Z,939.86
2023-02-24T12:40:23.463Z,939.91
2023-02-24T12:41:23.697Z,939.92
2023-02-24T12:42:23.430Z,939.92
2023-02-24T12:43:23.414Z,939.97
2023-02-24T12:44:23.403Z,939.92
2023-02-24T12:45:23.382Z,939.94
2023-02-24T12:46:23.485Z,939.88
2023-02-24T12:47:23.351Z,939.89